Time;durP1;ratioP1;P1;durP2;ratioP2;P2;SDS_P1;SDS_P2;PMS_P1;PMS_P2;Temp;Humidity;BMP_temperature;BMP_pressure;BME280_temperature;BME280_humidity;BME280_pressure;Samples;Min_cycle;Max_cycle;Signal;HPM_P1;HPM_P2
2022/12/30 00:02:17;;;;;;;26.75;18.25;;;;;;;6.84;100.00;62696.59;5068023;28;20633;-76
2022/12/30 00:04:46;;;;;;;24.63;16.58;;;;;;;6.80;100.00;62695.00;5064879;28;20197;-75
2022/12/30 00:07:14;;;;;;;20.52;12.93;;;;;;;6.84;100.00;62701.66;5064322;28;20255;-76
2022/12/30 00:09:50;;;;;;;21.25;13.90;;;;;;;6.84;100.00;62702.19;5079512;28;20201;-75
2022/12/30 00:35:10;;;;;;;18.27;13.00;;;;;;;6.88;100.00;62706.31;5066005;28;20261;-76
2022/12/30 00:37:37;;;;;;;16.58;12.98;;;;;;;6.91;100.00;62708.88;5083407;28;20235;-75
2022/12/30 00:40:05;;;;;;;23.42;13.57;;;;;;;6.91;100.00;62709.41;5083033;28;20250;-75
2022/12/30 00:45:17;;;;;;;18.02;11.68;;;;;;;6.84;100.00;62701.66;5083096;28;20199;-76
2022/12/30 00:47:45;;;;;;;20.52;12.43;;;;;;;6.80;100.00;62698.03;5077307;28;20404;-75
2022/12/30 00:58:27;;;;;;;15.43;11.63;;;;;;;6.78;100.00;62698.00;5097706;28;20218;-76
2022/12/30 01:00:54;;;;;;;18.15;12.75;;;;;;;6.79;100.00;62699.56;5081698;28;20224;-76
2022/12/30 01:03:21;;;;;;;19.55;13.88;;;;;;;6.81;100.00;62701.09;5074914;28;20210;-76
2022/12/30 01:05:48;;;;;;;21.73;12.60;;;;;;;6.82;100.00;62702.13;5083502;28;20224;-76
2022/12/30 01:08:15;;;;;;;19.65;14.00;;;;;;;6.80;100.00;62700.56;5083204;28;20264;-76
2022/12/30 01:10:42;;;;;;;20.20;12.27;;;;;;;6.81;100.00;62698.56;5072512;28;20229;-76
2022/12/30 01:13:09;;;;;;;17.55;12.82;;;;;;;6.79;100.00;62696.50;5077585;28;20196;-76
2022/12/30 01:15:37;;;;;;;20.85;13.77;;;;;;;6.81;100.00;62704.16;5083824;28;20200;-77
2022/12/30 01:18:04;;;;;;;19.52;12.85;;;;;;;6.80;100.00;62695.50;5081024;28;20212;-76
2022/12/30 01:20:32;;;;;;;17.00;12.60;;;;;;;6.72;100.00;62692.34;5084697;28;20231;-76
2022/12/30 01:22:59;;;;;;;15.80;11.63;;;;;;;6.71;100.00;62691.28;5076786;28;20213;-76
2022/12/30 01:25:26;;;;;;;18.50;12.68;;;;;;;6.73;100.00;62688.28;5078587;28;20240;-77
2022/12/30 01:27:53;;;;;;;17.05;10.00;;;;;;;6.73;100.00;62695.38;5072955;28;20233;-77
2022/12/30 01:30:22;;;;;;;14.52;10.32;;;;;;;6.72;100.00;62691.81;5081909;28;20185;-76
2022/12/30 01:32:50;;;;;;;14.48;9.38;;;;;;;6.67;100.00;62687.19;5076539;28;20201;-75
2022/12/30 01:35:17;;;;;;;12.93;7.72;;;;;;;6.43;100.00;62659.91;5088468;28;20255;-75
2022/12/30 01:37:44;;;;;;;9.63;8.57;;;;;;;6.42;100.00;62665.94;5087114;28;20249;-76
2022/12/30 01:40:12;;;;;;;12.30;8.23;;;;;;;6.42;100.00;62660.88;5083079;28;20202;-75
2022/12/30 01:42:40;;;;;;;14.43;10.25;;;;;;;6.46;100.00;62659.94;5085831;28;20506;-78
2022/12/30 01:45:18;;;;;;;13.57;10.60;;;;;;;6.49;100.00;62666.06;5078943;28;20201;-77
2022/12/30 01:47:52;;;;;;;24.10;12.95;;;;;;;6.50;100.00;62667.13;5087680;28;20228;-77
2022/12/30 01:50:34;;;;;;;17.27;13.60;;;;;;;6.51;100.00;62668.13;5085564;28;20245;-76
2022/12/30 01:53:06;;;;;;;20.77;13.68;;;;;;;6.40;100.00;62653.75;5068952;28;20224;-76
2022/12/30 01:55:37;;;;;;;30.52;18.83;;;;;;;6.36;100.00;62649.63;5069545;28;20256;-76
2022/12/30 01:58:08;;;;;;;28.98;17.67;;;;;;;6.29;100.00;62644.94;5082428;28;20200;-77
2022/12/30 02:00:35;;;;;;;31.63;18.95;;;;;;;6.23;100.00;62644.31;5081429;28;20239;-76
2022/12/30 02:03:04;;;;;;;31.45;17.23;;;;;;;6.22;100.00;62638.25;5086442;28;20193;-76
2022/12/30 02:05:36;;;;;;;30.02;16.63;;;;;;;6.21;100.00;62636.69;5081646;28;20200;-75
2022/12/30 02:08:10;;;;;;;28.88;16.95;;;;;;;6.25;100.00;62643.34;5086891;28;20456;-75
2022/12/30 02:10:40;;;;;;;23.63;14.52;;;;;;;6.24;100.00;62637.25;5067757;28;20232;-76
2022/12/30 02:13:07;;;;;;;22.35;14.38;;;;;;;6.17;100.00;62632.56;5074138;28;20217;-76
2022/12/30 02:15:47;;;;;;;17.83;11.98;;;;;;;6.17;100.00;62633.09;5084301;28;20271;-75
2022/12/30 02:18:26;;;;;;;16.05;10.80;;;;;;;6.06;100.00;62626.81;5086780;28;20212;-76
2022/12/30 02:21:28;;;;;;;22.83;14.25;;;;;;;5.95;100.00;62607.38;5086939;28;20432;-76
2022/12/30 02:24:28;;;;;;;22.08;12.80;;;;;;;5.96;100.00;62615.97;5071886;28;20255;-75
2022/12/30 02:27:28;;;;;;;12.70;9.25;;;;;;;5.98;100.00;62613.50;5069668;28;20236;-75
2022/12/30 02:30:07;;;;;;;15.80;10.57;;;;;;;5.98;100.00;62616.03;5079155;28;20231;-75
2022/12/30 02:32:51;;;;;;;16.85;10.93;;;;;;;5.96;100.00;62613.44;5081656;28;20220;-76
2022/12/30 02:35:23;;;;;;;16.95;9.00;;;;;;;5.97;100.00;62612.47;5075816;28;20557;-76
2022/12/30 02:38:01;;;;;;;15.77;9.80;;;;;;;5.98;100.00;62615.50;5085510;28;20235;-76
2022/12/30 02:46:07;;;;;;;11.38;9.43;;;;;;;5.92;100.00;62604.28;5066375;28;20292;-77
2022/12/30 02:48:39;;;;;;;14.82;9.88;;;;;;;5.80;100.00;62597.97;5071361;28;20548;-76
2022/12/30 02:53:53;;;;;;;17.10;11.48;;;;;;;5.80;100.00;62599.97;5075861;28;20211;-75
2022/12/30 02:56:20;;;;;;;16.83;10.63;;;;;;;5.80;100.00;62597.44;5070150;28;20542;-76
2022/12/30 02:58:50;;;;;;;15.40;11.43;;;;;;;5.71;100.00;62591.22;5080374;28;20220;-76
2022/12/30 03:04:24;;;;;;;18.33;11.55;;;;;;;5.60;100.00;62574.84;5074000;28;20215;-74
2022/12/30 03:07:05;;;;;;;21.48;12.05;;;;;;;5.54;100.00;62568.66;5083135;28;20300;-75
2022/12/30 03:11:12;;;;;;;15.90;11.90;;;;;;;5.52;100.00;62568.63;5071325;28;20256;-74
2022/12/30 03:12:39;;;;;;;18.08;12.80;;;;;;;5.47;100.00;62560.94;5086770;28;20216;-75
2022/12/30 03:15:14;;;;;;;14.38;11.18;;;;;;;5.49;100.00;62563.00;5074227;28;20223;-76
2022/12/30 03:17:43;;;;;;;18.38;11.57;;;;;;;5.46;100.00;62559.91;5074799;28;20236;-75
2022/12/30 03:20:16;;;;;;;20.20;11.93;;;;;;;5.38;100.00;62549.66;5075256;28;20223;-76
2022/12/30 03:28:17;;;;;;;26.08;18.23;;;;;;;5.18;100.00;62531.56;5088220;28;20234;-76
2022/12/30 03:30:46;;;;;;;44.22;26.00;;;;;;;5.13;100.00;62528.44;5083102;28;20293;-76
2022/12/30 03:33:14;;;;;;;40.78;25.67;;;;;;;5.07;100.00;62525.31;5066253;28;20350;-76
2022/12/30 03:35:48;;;;;;;28.38;18.35;;;;;;;4.97;100.00;62515.00;5082680;28;20235;-76
2022/12/30 03:38:20;;;;;;;32.40;20.08;;;;;;;4.95;100.00;62512.44;5085801;28;20204;-75
2022/12/30 03:40:49;;;;;;;32.60;19.92;;;;;;;4.93;100.00;62510.88;5083673;28;20221;-77
2022/12/30 03:43:17;;;;;;;20.25;13.93;;;;;;;4.88;100.00;62500.69;5084901;28;20236;-76
2022/12/30 03:45:44;;;;;;;18.88;13.60;;;;;;;4.83;100.00;62500.06;5084242;28;20231;-77
2022/12/30 03:48:11;;;;;;;20.98;13.65;;;;;;;4.85;100.00;62495.06;5084244;28;20224;-76
2022/12/30 03:50:38;;;;;;;22.88;13.77;;;;;;;4.88;100.00;62497.66;5076012;28;20221;-76
2022/12/30 03:53:06;;;;;;;30.23;17.40;;;;;;;4.90;100.00;62500.22;5081479;28;20231;-77
2022/12/30 03:55:33;;;;;;;27.67;13.55;;;;;;;4.97;100.00;62515.00;5084370;28;20212;-77
2022/12/30 03:58:00;;;;;;;19.77;14.02;;;;;;;4.95;100.00;62504.84;5081322;28;20488;-76
2022/12/30 04:00:27;;;;;;;25.45;15.18;;;;;;;5.01;100.00;62511.56;5075960;28;20205;-76
2022/12/30 04:02:54;;;;;;;21.05;14.43;;;;;;;5.02;100.00;62515.09;5081099;28;20202;-75
2022/12/30 04:05:21;;;;;;;17.83;12.93;;;;;;;4.93;100.00;62508.38;5070030;28;20510;-75
2022/12/30 04:07:48;;;;;;;25.48;13.23;;;;;;;4.97;100.00;62511.97;5077146;28;20232;-75
2022/12/30 04:10:17;;;;;;;19.80;13.50;;;;;;;4.99;100.00;62514.53;5084949;28;20200;-76
2022/12/30 04:12:44;;;;;;;19.48;12.07;;;;;;;5.00;100.00;62518.09;5072224;28;20230;-76
2022/12/30 04:15:11;;;;;;;18.85;12.18;;;;;;;4.97;100.00;62515.00;5078364;28;20203;-75
2022/12/30 04:17:38;;;;;;;22.77;13.25;;;;;;;5.06;100.00;62521.75;5077605;28;20566;-77
2022/12/30 04:20:06;;;;;;;18.45;12.40;;;;;;;5.15;100.00;62531.00;5080742;28;20209;-78
2022/12/30 04:22:33;;;;;;;21.48;13.43;;;;;;;5.17;100.00;62530.03;5083975;28;20242;-76
2022/12/30 04:25:00;;;;;;;23.38;14.27;;;;;;;5.23;100.00;62536.72;5071016;28;20483;-76
2022/12/30 04:27:28;;;;;;;21.15;12.68;;;;;;;5.27;100.00;62543.38;5073790;28;20544;-75
2022/12/30 04:29:55;;;;;;;20.65;13.73;;;;;;;5.23;100.00;62531.19;5087729;28;20212;-77
2022/12/30 04:32:22;;;;;;;20.42;13.95;;;;;;;5.22;100.00;62542.75;5084843;28;20229;-76
2022/12/30 04:34:49;;;;;;;26.88;14.48;;;;;;;5.27;100.00;62543.38;5085519;28;20196;-76
2022/12/30 04:37:16;;;;;;;26.35;14.95;;;;;;;5.29;100.00;62542.91;5085901;28;20285;-77
2022/12/30 04:39:43;;;;;;;26.10;17.85;;;;;;;5.34;100.00;62550.06;5082507;28;20247;-77
2022/12/30 04:42:09;;;;;;;30.45;18.77;;;;;;;5.40;100.00;62553.72;5069119;28;20225;-76
2022/12/30 04:44:38;;;;;;;31.30;20.25;;;;;;;5.39;100.00;62553.22;5077700;28;20197;-77
2022/12/30 04:47:05;;;;;;;37.33;19.48;;;;;;;5.36;100.00;62549.59;5080834;28;20233;-76
2022/12/30 04:49:32;;;;;;;26.35;16.13;;;;;;;5.39;100.00;62558.25;5084632;28;20200;-77
2022/12/30 04:51:58;;;;;;;28.02;16.75;;;;;;;5.26;100.00;62544.88;5065770;28;20521;-77
2022/12/30 04:54:25;;;;;;;23.25;14.63;;;;;;;5.29;100.00;62542.38;5073710;28;20201;-75
2022/12/30 04:56:53;;;;;;;26.33;15.35;;;;;;;5.31;100.00;62546.97;5063471;28;20501;-77
2022/12/30 04:59:19;;;;;;;15.82;12.45;;;;;;;5.35;100.00;62549.09;5063430;28;20205;-76
2022/12/30 05:01:48;;;;;;;15.98;11.93;;;;;;;5.35;100.00;62551.59;5075135;28;20420;-77
2022/12/30 05:04:15;;;;;;;20.33;13.45;;;;;;;5.37;100.00;62553.16;5074212;28;20454;-76
2022/12/30 05:06:41;;;;;;;18.77;12.15;;;;;;;5.42;100.00;62558.28;5084182;28;20228;-77
2022/12/30 05:09:09;;;;;;;19.98;13.13;;;;;;;5.41;100.00;62552.22;5067118;28;20336;-75
2022/12/30 05:11:35;;;;;;;15.90;11.63;;;;;;;5.41;100.00;62554.75;5081166;28;20281;-76
2022/12/30 05:14:02;;;;;;;23.13;13.35;;;;;;;5.48;100.00;62564.50;5081954;28;20197;-77
2022/12/30 05:16:29;;;;;;;20.23;11.93;;;;;;;5.49;100.00;62563.00;5072732;28;20240;-76
2022/12/30 05:18:57;;;;;;;18.80;12.00;;;;;;;5.47;100.00;62560.94;5076635;28;20195;-76
2022/12/30 05:21:24;;;;;;;15.10;10.52;;;;;;;5.43;100.00;62559.34;5067183;28;20221;-74
2022/12/30 05:26:38;;;;;;;16.15;10.68;;;;;;;5.33;100.00;62549.03;5067222;28;20263;-78
2022/12/30 05:29:10;;;;;;;16.92;11.55;;;;;;;5.30;100.00;62543.41;5080032;28;20232;-77
2022/12/30 05:31:37;;;;;;;16.90;11.35;;;;;;;5.33;100.00;62549.03;5081808;28;20554;-75
2022/12/30 05:34:06;;;;;;;17.50;11.85;;;;;;;5.36;100.00;62550.13;5081192;28;20232;-76
2022/12/30 05:36:33;;;;;;;19.58;12.57;;;;;;;5.36;100.00;62552.13;5086219;28;20234;-76
2022/12/30 05:39:00;;;;;;;16.63;11.70;;;;;;;5.28;100.00;62541.88;5081681;28;20494;-75
2022/12/30 05:41:48;;;;;;;16.15;11.65;;;;;;;5.18;100.00;62536.63;5085592;28;20220;-76
2022/12/30 05:44:15;;;;;;;17.63;12.30;;;;;;;5.10;100.00;62525.34;5090415;28;20201;-75
2022/12/30 05:46:42;;;;;;;16.88;11.40;;;;;;;5.13;100.00;62528.44;5081375;28;20478;-77
2022/12/30 05:49:10;;;;;;;20.98;11.70;;;;;;;5.11;100.00;62524.38;5084671;28;20454;-77
2022/12/30 05:51:39;;;;;;;20.05;12.18;;;;;;;5.07;100.00;62522.25;5087662;28;20228;-76
2022/12/30 05:54:06;;;;;;;18.40;11.40;;;;;;;4.95;100.00;62512.44;5085642;28;20201;-76
2022/12/30 05:56:33;;;;;;;18.42;12.27;;;;;;;4.96;100.00;62511.44;5079994;28;20259;-75
2022/12/30 05:59:00;;;;;;;18.63;12.32;;;;;;;4.84;100.00;62494.03;5081337;28;20239;-75
2022/12/30 06:01:27;;;;;;;16.00;11.05;;;;;;;4.83;100.00;62497.56;5068846;28;20300;-75
2022/12/30 06:03:55;;;;;;;17.75;11.98;;;;;;;4.83;100.00;62500.59;5070532;28;20201;-76
2022/12/30 06:06:24;;;;;;;18.73;13.18;;;;;;;4.86;100.00;62500.63;5085076;28;20239;-76
2022/12/30 06:08:51;;;;;;;23.75;13.18;;;;;;;4.84;100.00;62498.56;5087986;28;20232;-75
2022/12/30 06:11:18;;;;;;;20.83;14.90;;;;;;;4.82;100.00;62499.56;5087381;28;20225;-75
2022/12/30 06:13:45;;;;;;;21.52;15.27;;;;;;;4.85;100.00;62494.56;5077160;28;20418;-76
2022/12/30 06:16:12;;;;;;;18.42;12.80;;;;;;;4.82;100.00;62491.47;5084933;28;20226;-75
2022/12/30 06:18:39;;;;;;;19.10;12.23;;;;;;;4.44;100.00;62453.38;5086728;28;20204;-76
2022/12/30 06:21:06;;;;;;;17.50;11.73;;;;;;;4.90;100.00;62509.81;5080456;28;20271;-76
2022/12/30 06:23:35;;;;;;;15.90;11.55;;;;;;;4.83;100.00;62500.59;5076519;28;20193;-76
2022/12/30 06:26:02;;;;;;;14.93;10.65;;;;;;;4.92;100.00;62504.81;5086972;28;20284;-77
2022/12/30 06:28:30;;;;;;;19.73;12.32;;;;;;;4.96;100.00;62510.94;5067604;28;20241;-77
2022/12/30 06:30:57;;;;;;;15.85;12.20;;;;;;;5.01;100.00;62511.03;5067653;28;20225;-78
2022/12/30 06:33:24;;;;;;;19.58;13.45;;;;;;;5.06;100.00;62518.69;5082908;28;20215;-76
2022/12/30 06:35:51;;;;;;;22.05;13.63;;;;;;;5.12;100.00;62530.44;5078689;28;20256;-77
2022/12/30 06:38:17;;;;;;;16.00;11.32;;;;;;;5.20;100.00;62531.13;5066224;28;20209;-77
2022/12/30 06:40:46;;;;;;;15.25;11.35;;;;;;;5.25;100.00;62543.31;5067789;28;20217;-77
2022/12/30 06:43:13;;;;;;;15.82;11.48;;;;;;;5.28;100.00;62541.38;5083869;28;20428;-76
2022/12/30 06:45:40;;;;;;;17.63;11.85;;;;;;;5.30;100.00;62543.94;5085978;28;20248;-75
2022/12/30 06:48:07;;;;;;;17.52;12.60;;;;;;;5.39;100.00;62553.22;5085643;28;20298;-76
2022/12/30 06:50:34;;;;;;;18.60;13.50;;;;;;;5.35;100.00;62554.13;5080704;28;20531;-75
2022/12/30 06:53:01;;;;;;;19.85;13.18;;;;;;;5.43;100.00;62559.88;5085282;28;20200;-76
2022/12/30 06:55:28;;;;;;;16.73;12.48;;;;;;;5.45;100.00;62561.91;5082263;28;20205;-75
2022/12/30 06:57:56;;;;;;;18.77;11.93;;;;;;;5.48;100.00;62561.97;5066704;28;20216;-76
2022/12/30 07:00:23;;;;;;;16.90;10.82;;;;;;;5.30;100.00;62546.47;5081217;28;20216;-76
2022/12/30 07:02:50;;;;;;;32.15;16.73;;;;;;;5.28;100.00;62546.91;5084471;28;20185;-76
2022/12/30 07:05:17;;;;;;;42.58;26.95;;;;;;;5.29;100.00;62542.38;5086007;28;20201;-77
2022/12/30 07:07:44;;;;;;;54.00;31.90;;;;;;;5.33;100.00;62547.03;5067890;28;20206;-77
2022/12/30 07:10:11;;;;;;;60.10;34.67;;;;;;;5.29;100.00;62540.38;5083455;28;20277;-77
2022/12/30 07:12:37;;;;;;;63.08;37.30;;;;;;;5.35;100.00;62551.59;5084936;28;20419;-76
2022/12/30 07:15:07;;;;;;;65.60;36.72;;;;;;;5.44;100.00;62558.34;5073607;28;20197;-76
2022/12/30 07:17:37;;;;;;;51.33;28.75;;;;;;;5.49;100.00;62563.00;5083380;28;20496;-77
2022/12/30 07:20:06;;;;;;;57.80;33.25;;;;;;;5.61;100.00;62575.34;5077372;28;20205;-76
2022/12/30 07:22:33;;;;;;;53.67;30.02;;;;;;;5.83;100.00;62598.06;5084741;28;20522;-76
2022/12/30 07:25:00;;;;;;;52.08;34.60;;;;;;;6.08;100.00;62626.34;5085030;28;20200;-77
2022/12/30 07:27:27;;;;;;;63.28;37.03;;;;;;;5.98;100.00;62616.03;5065495;28;20236;-76
2022/12/30 07:29:53;;;;;;;65.28;39.53;;;;;;;6.09;100.00;62629.38;5080109;28;20228;-77
2022/12/30 07:32:22;;;;;;;63.17;37.15;;;;;;;6.14;100.00;62632.53;5084821;28;20220;-76
2022/12/30 07:34:48;;;;;;;60.88;34.33;;;;;;;6.20;100.00;62638.72;5085542;28;20209;-76
2022/12/30 07:37:15;;;;;;;54.50;33.30;;;;;;;6.23;100.00;62638.75;5087691;28;20229;-75
2022/12/30 07:39:42;;;;;;;46.72;30.58;;;;;;;6.27;100.00;62643.41;5082037;28;20205;-77
2022/12/30 07:42:09;;;;;;;52.45;28.95;;;;;;;6.32;100.00;62653.09;5082369;28;20235;-76
2022/12/30 07:44:37;;;;;;;45.38;28.27;;;;;;;6.32;100.00;62648.03;5077262;28;20239;-76
2022/12/30 07:47:04;;;;;;;40.75;27.20;;;;;;;6.07;100.00;62627.84;5074279;28;20237;-76
2022/12/30 07:49:32;;;;;;;43.47;26.60;;;;;;;6.21;100.00;62636.69;5082585;28;20266;-77
2022/12/30 07:51:59;;;;;;;37.30;25.00;;;;;;;6.35;100.00;62654.16;5082669;28;20256;-77
2022/12/30 07:54:26;;;;;;;41.10;26.63;;;;;;;6.21;100.00;62636.69;5085498;28;20213;-76
2022/12/30 07:56:53;;;;;;;42.13;26.08;;;;;;;6.44;100.00;62657.88;5083348;28;20301;-76
2022/12/30 07:59:19;;;;;;;43.20;27.00;;;;;;;6.41;100.00;62659.84;5084955;28;20216;-77
2022/12/30 08:01:46;;;;;;;46.30;28.42;;;;;;;6.38;100.00;62657.28;5084403;28;20233;-77
2022/12/30 08:04:13;;;;;;;49.28;28.33;;;;;;;6.49;100.00;62670.63;5083341;28;20201;-76
2022/12/30 08:06:41;;;;;;;51.00;29.95;;;;;;;6.51;100.00;62673.19;5081334;28;20224;-75
2022/12/30 08:09:08;;;;;;;46.10;28.98;;;;;;;6.47;100.00;62663.50;5082065;28;20228;-75
2022/12/30 08:11:35;;;;;;;46.38;27.30;;;;;;;6.51;100.00;62670.66;5078275;28;20232;-76
2022/12/30 08:14:02;;;;;;;39.70;24.38;;;;;;;6.66;100.00;62688.66;5073679;28;20504;-78
2022/12/30 08:16:29;;;;;;;31.27;21.42;;;;;;;6.57;100.00;62674.34;5084086;28;20229;-77
2022/12/30 08:18:56;;;;;;;35.85;23.30;;;;;;;6.61;100.00;62678.44;5073945;28;20226;-77
2022/12/30 08:21:23;;;;;;;32.92;20.65;;;;;;;6.74;100.00;62693.88;5069421;28;20359;-76
2022/12/30 08:23:51;;;;;;;36.83;22.65;;;;;;;6.74;100.00;62691.34;5081662;28;20193;-76
2022/12/30 08:26:20;;;;;;;35.05;23.33;;;;;;;6.83;100.00;62703.66;5074021;28;20230;-77
2022/12/30 08:28:47;;;;;;;33.90;22.17;;;;;;;6.90;100.00;62710.38;5084444;28;20252;-76
2022/12/30 08:31:16;;;;;;;32.53;20.80;;;;;;;6.91;100.00;62713.94;5073305;28;20451;-76
2022/12/30 08:33:43;;;;;;;33.20;22.15;;;;;;;7.06;100.00;62726.38;5080564;28;20238;-76
2022/12/30 08:36:12;;;;;;;35.03;22.75;;;;;;;7.06;100.00;62723.84;5081045;28;20224;-77
2022/12/30 08:38:41;;;;;;;36.08;23.63;;;;;;;6.91;100.00;62711.94;5076099;28;20197;-75
2022/12/30 08:41:12;;;;;;;36.95;22.98;;;;;;;6.70;100.00;62689.75;5075937;28;20239;-76
2022/12/30 08:43:39;;;;;;;31.70;20.73;;;;;;;6.93;100.00;62714.00;5090785;28;20226;-76
2022/12/30 08:46:06;;;;;;;31.23;20.98;;;;;;;7.04;100.00;62724.81;5083397;28;20589;-75
2022/12/30 08:48:33;;;;;;;30.40;18.42;;;;;;;7.09;100.00;62730.00;5077686;28;20311;-75
2022/12/30 08:51:01;;;;;;;34.72;17.90;;;;;;;7.06;100.00;62724.34;5083944;28;20223;-75
2022/12/30 08:53:28;;;;;;;31.70;19.90;;;;;;;7.17;100.00;62735.19;5082417;28;20206;-75
2022/12/30 08:56:03;;;;;;;24.17;17.58;;;;;;;7.33;100.00;62754.75;5086333;28;20243;-77
2022/12/30 08:58:33;;;;;;;30.20;17.08;;;;;;;7.45;100.00;62759.03;5084132;28;20216;-76
2022/12/30 09:01:07;;;;;;;26.75;17.63;;;;;;;7.62;100.00;62781.63;5078591;28;20384;-78
2022/12/30 09:03:35;;;;;;;26.27;17.38;;;;;;;7.78;100.00;62801.19;5081826;28;20486;-77
2022/12/30 09:06:02;;;;;;;28.17;16.63;;;;;;;7.90;100.00;62813.56;5083260;28;20548;-75
2022/12/30 09:08:29;;;;;;;26.45;16.40;;;;;;;7.99;100.00;62819.81;5082542;28;20456;-75
2022/12/30 09:10:57;;;;;;;23.13;15.63;;;;;;;8.09;100.00;62830.16;5084663;28;20224;-77
2022/12/30 09:13:24;;;;;;;24.75;15.52;;;;;;;8.26;100.00;62847.72;5078980;28;20235;-76
2022/12/30 09:15:53;;;;;;;29.75;16.83;;;;;;;8.40;100.00;62861.69;5083781;28;20221;-77
2022/12/30 09:18:20;;;;;;;37.00;15.35;;;;;;;8.27;99.92;62853.31;5082979;28;20208;-76
2022/12/30 09:20:47;;;;;;;24.85;14.85;;;;;;;8.02;99.37;62820.91;5066500;28;20225;-75
2022/12/30 09:23:14;;;;;;;27.33;16.17;;;;;;;7.99;100.00;62815.28;5069673;28;20197;-77
2022/12/30 09:25:42;;;;;;;27.40;16.27;;;;;;;7.93;100.00;62819.22;5081998;28;20404;-76
2022/12/30 09:28:10;;;;;;;23.67;15.93;;;;;;;7.87;100.00;62807.44;5082621;28;20205;-77
2022/12/30 09:30:37;;;;;;;27.55;16.75;;;;;;;7.96;100.00;62817.25;5070759;28;20276;-76
2022/12/30 09:33:06;;;;;;;25.80;16.17;;;;;;;7.90;100.00;62810.53;5085944;28;20223;-76
2022/12/30 09:35:33;;;;;;;31.92;17.05;;;;;;;7.97;100.00;62820.31;5079652;28;20196;-76
2022/12/30 09:38:00;;;;;;;27.25;16.60;;;;;;;8.16;100.00;62837.88;5085190;28;20211;-77
2022/12/30 09:40:46;;;;;;;35.47;20.17;;;;;;;8.49;100.00;62870.97;5084393;28;20208;-76
2022/12/30 09:43:21;;;;;;;35.58;20.58;;;;;;;8.65;99.52;62892.56;5068212;28;20271;-76
2022/12/30 09:46:22;;;;;;;30.05;19.77;;;;;;;8.64;97.95;62889.53;5085445;28;20220;-75
2022/12/30 09:48:59;;;;;;;31.77;19.33;;;;;;;8.86;97.41;62912.25;5052212;28;20243;-75
2022/12/30 09:51:31;;;;;;;32.22;18.73;;;;;;;9.05;97.39;62926.28;5084596;28;20243;-77
2022/12/30 09:54:02;;;;;;;33.42;20.00;;;;;;;9.29;96.13;62959.25;5077265;28;20215;-78
2022/12/30 09:56:32;;;;;;;34.17;21.77;;;;;;;9.04;95.27;62930.84;5091301;28;20225;-76
2022/12/30 09:59:05;;;;;;;33.25;21.00;;;;;;;9.10;95.20;62937.06;5092093;28;20212;-77
2022/12/30 10:01:38;;;;;;;33.40;20.05;;;;;;;9.20;94.48;62941.78;5085695;28;20258;-77
2022/12/30 10:04:14;;;;;;;37.00;22.50;;;;;;;9.28;93.92;62952.63;5086549;28;20238;-77
2022/12/30 10:06:50;;;;;;;34.15;23.48;;;;;;;8.95;95.46;62918.50;5074862;28;20248;-76
2022/12/30 10:09:43;;;;;;;39.72;25.00;;;;;;;8.98;96.20;62924.66;5090508;28;20280;-77
2022/12/30 10:12:42;;;;;;;36.78;25.05;;;;;;;9.17;95.90;62941.75;5085620;28;20229;-76
2022/12/30 10:15:34;;;;;;;43.50;26.30;;;;;;;8.86;95.92;62911.72;5080585;28;20193;-76
2022/12/30 10:18:24;;;;;;;40.83;24.80;;;;;;;8.98;95.98;62921.59;5075064;28;20208;-75
2022/12/30 10:21:06;;;;;;;44.00;26.63;;;;;;;9.03;95.47;62929.31;5082004;28;20284;-76
2022/12/30 10:23:55;;;;;;;46.50;27.48;;;;;;;8.90;96.38;62913.34;5080353;28;20200;-76
2022/12/30 10:26:25;;;;;;;48.35;27.00;;;;;;;9.06;96.59;62929.88;5084832;28;20252;-74
2022/12/30 10:28:58;;;;;;;46.33;26.80;;;;;;;9.11;95.58;62937.59;5080636;28;20239;-75
2022/12/30 10:31:29;;;;;;;41.15;26.10;;;;;;;9.19;95.49;62945.84;5076057;28;20233;-76
2022/12/30 10:34:02;;;;;;;45.22;25.88;;;;;;;9.21;95.47;62947.91;5081976;28;20310;-76
2022/12/30 10:36:39;;;;;;;41.70;26.70;;;;;;;9.44;94.82;62971.69;5082565;28;20449;-75
2022/12/30 10:39:15;;;;;;;39.15;23.92;;;;;;;9.52;94.68;62979.44;5082409;28;20196;-76
2022/12/30 10:41:56;;;;;;;46.03;25.73;;;;;;;9.60;93.06;62990.25;5081608;28;20287;-77
2022/12/30 10:44:29;;;;;;;39.15;25.05;;;;;;;9.70;92.38;62995.53;5080445;28;20215;-79
2022/12/30 10:47:17;;;;;;;43.03;24.85;;;;;;;9.86;91.87;63015.13;5083226;28;20284;-77
2022/12/30 10:50:00;;;;;;;40.35;24.25;;;;;;;9.90;90.58;63016.72;5076826;28;20225;-77
2022/12/30 10:52:29;;;;;;;40.03;23.73;;;;;;;9.82;90.79;63008.44;5078471;28;20235;-77
2022/12/30 10:54:56;;;;;;;43.92;24.98;;;;;;;9.71;91.46;62999.63;5085082;28;20193;-77
2022/12/30 10:57:28;;;;;;;39.70;24.52;;;;;;;9.68;91.34;62993.97;5083108;28;20258;-77
2022/12/30 10:59:56;;;;;;;40.63;25.42;;;;;;;9.86;92.17;63012.06;5083185;28;20194;-76
2022/12/30 11:02:29;;;;;;;38.20;24.33;;;;;;;10.07;90.15;63038.88;5080796;28;20550;-76
2022/12/30 11:04:56;;;;;;;41.47;25.25;;;;;;;10.20;88.84;63045.22;5082159;28;20238;-76
2022/12/30 11:07:23;;;;;;;40.50;24.02;;;;;;;10.34;87.23;63064.81;5081221;28;20228;-76
2022/12/30 11:09:51;;;;;;;40.65;25.35;;;;;;;10.11;86.31;63041.00;5084245;28;20232;-75
2022/12/30 11:15:18;;;;;;;41.55;24.05;;;;;;;10.23;87.95;63053.41;5082053;28;20187;-76
2022/12/30 11:17:48;;;;;;;44.50;25.25;;;;;;;10.21;86.61;63048.81;5073878;28;20224;-75
2022/12/30 11:20:28;;;;;;;44.58;24.80;;;;;;;10.26;86.68;63050.91;5081944;28;20234;-78
2022/12/30 11:22:58;;;;;;;40.30;24.58;;;;;;;10.18;85.71;63045.19;5076572;28;20201;-76
2022/12/30 11:25:29;;;;;;;40.92;24.30;;;;;;;10.05;86.30;63037.31;5065520;28;20209;-76
2022/12/30 11:28:00;;;;;;;43.20;25.35;;;;;;;9.79;88.93;63004.81;5073307;28;20212;-78
2022/12/30 11:30:31;;;;;;;43.20;25.42;;;;;;;9.93;89.14;63021.84;5075869;28;20240;-77
2022/12/30 11:33:02;;;;;;;45.88;25.58;;;;;;;10.16;88.23;63048.22;5079139;28;20205;-77
2022/12/30 11:35:38;;;;;;;44.35;24.48;;;;;;;9.99;86.61;63026.03;5073412;28;20228;-77
2022/12/30 11:38:27;;;;;;;43.92;24.88;;;;;;;10.17;87.03;63049.25;5072623;28;20201;-79
2022/12/30 11:40:56;;;;;;;43.28;25.02;;;;;;;10.17;85.61;63049.75;5083507;28;20526;-77
2022/12/30 11:43:24;;;;;;;36.05;24.08;;;;;;;10.16;86.63;63043.63;5079374;28;20197;-77
2022/12/30 11:45:58;;;;;;;37.42;24.92;;;;;;;10.37;85.96;63070.44;5074356;28;20225;-77
2022/12/30 11:48:32;;;;;;;41.10;23.75;;;;;;;10.20;85.05;63044.69;5079263;28;20200;-76
2022/12/30 11:51:01;;;;;;;43.58;25.85;;;;;;;10.28;86.20;63055.53;5072109;28;20542;-76
2022/12/30 11:53:32;;;;;;;39.80;26.55;;;;;;;10.30;84.89;63063.22;5078105;28;20272;-80
2022/12/30 11:56:00;;;;;;;43.38;26.13;;;;;;;10.07;86.41;63034.31;5072586;28;20225;-77
2022/12/30 11:58:32;;;;;;;39.70;25.15;;;;;;;10.22;86.40;63051.88;5083780;28;20201;-77
2022/12/30 12:01:05;;;;;;;40.03;25.23;;;;;;;10.31;84.93;63063.72;5085747;28;20251;-78
2022/12/30 12:03:33;;;;;;;41.67;26.98;;;;;;;10.54;84.15;63082.44;5078624;28;20239;-77
2022/12/30 12:06:09;;;;;;;36.72;24.38;;;;;;;10.52;84.02;63079.84;5074405;28;20217;-77
2022/12/30 12:08:43;;;;;;;38.28;24.95;;;;;;;10.58;83.39;63089.13;5080824;28;20240;-80
2022/12/30 12:11:17;;;;;;;42.90;24.73;;;;;;;10.65;82.52;63095.88;5085880;28;20281;-77
2022/12/30 12:13:52;;;;;;;41.17;26.05;;;;;;;10.71;81.76;63102.59;5084365;28;20193;-77
2022/12/30 12:16:32;;;;;;;34.97;25.02;;;;;;;10.75;81.30;63109.25;5084832;28;20235;-77
2022/12/30 12:19:13;;;;;;;44.70;25.55;;;;;;;10.77;80.53;63113.88;5065023;28;20540;-77
2022/12/30 12:21:41;;;;;;;35.85;24.10;;;;;;;10.88;79.99;63119.66;5075502;28;20438;-76
2022/12/30 12:24:19;;;;;;;43.63;25.10;;;;;;;10.97;80.39;63129.50;5073803;28;20216;-77
2022/12/30 12:26:53;;;;;;;40.10;25.27;;;;;;;10.86;78.86;63115.56;5084197;28;20551;-77
2022/12/30 12:29:21;;;;;;;39.88;23.92;;;;;;;10.56;79.97;63084.50;5085323;28;20269;-77
2022/12/30 12:32:02;;;;;;;40.75;23.40;;;;;;;10.48;81.19;63076.22;5081977;28;20224;-77